Terminal Aerodrome Forecast
Issued by NWS Burlington, VT

Home | Current Version | Previous Version | Text Only | Print | Product List | Glossary On
Versions: 1 2 3 4 5 6 7 8 9 10 11 12 13 14 15 16
623
FTUS41 KBTV 261131
TAFBTV
TAF
KBTV 261131Z 2612/2712 19004KT P6SM SKC
     FM262200 18007G14KT P6SM FEW070 BKN110
     FM270300 19006KT P6SM VCSH FEW060 BKN090
     FM270600 18006KT 6SM -SHRA BR SCT050 OVC080=

USA.gov is the U.S. government's official web portal to all federal, state and local government web resources and services.